createdAt,value
2018-04-13T00:01:29.561Z,99.43
2018-04-13T00:03:57.783Z,98.37
2018-04-13T00:06:25.917Z,93.47
2018-04-13T00:08:54.071Z,93.87
2018-04-13T00:11:22.306Z,94.35
2018-04-13T00:13:50.425Z,91.55
2018-04-13T00:16:18.545Z,98.15
2018-04-13T00:18:47.539Z,94.80
2018-04-13T00:21:15.673Z,101.50
2018-04-13T00:23:43.907Z,94.65
2018-04-13T00:26:12.070Z,95.18
2018-04-13T00:28:40.198Z,91.25
2018-04-13T00:31:08.730Z,83.90
2018-04-13T00:33:36.878Z,91.40
2018-04-13T00:36:05.758Z,87.60
2018-04-13T00:38:34.666Z,95.40
2018-04-13T00:41:03.552Z,88.32
2018-04-13T00:43:32.426Z,82.47
2018-04-13T00:46:01.306Z,74.32
2018-04-13T00:48:29.409Z,79.10
2018-04-13T00:50:58.301Z,86.40
2018-04-13T00:53:28.990Z,82.57
2018-04-13T00:55:57.109Z,82.75
2018-04-13T00:58:26.095Z,80.53
2018-04-13T01:00:54.973Z,75.28
2018-04-13T01:03:23.887Z,80.60
2018-04-13T01:05:52.005Z,85.45
2018-04-13T01:08:20.113Z,95.30
2018-04-13T01:10:49.022Z,88.78
2018-04-13T01:13:17.895Z,85.68
2018-04-13T01:15:46.772Z,79.85
2018-04-13T01:18:16.389Z,81.15
2018-04-13T01:20:45.284Z,83.65
2018-04-13T01:23:14.168Z,83.20
2018-04-13T01:25:43.057Z,84.40
2018-04-13T01:28:11.936Z,81.05
2018-04-13T01:30:40.831Z,72.07
2018-04-13T01:33:09.712Z,70.95
2018-04-13T01:35:37.822Z,79.10
2018-04-13T01:38:05.951Z,77.95
2018-04-13T01:40:34.063Z,78.35
2018-04-13T01:43:02.949Z,80.93
2018-04-13T01:45:31.822Z,79.65
2018-04-13T01:48:01.441Z,89.13
2018-04-13T01:50:30.325Z,88.95
2018-04-13T01:52:59.215Z,87.45
2018-04-13T01:55:28.091Z,90.60
2018-04-13T01:57:56.209Z,73.03
2018-04-13T02:00:24.315Z,71.70
2018-04-13T02:02:52.431Z,64.20
2018-04-13T02:05:21.304Z,68.22
2018-04-13T02:07:50.195Z,76.97
2018-04-13T02:10:18.390Z,83.32
2018-04-13T02:12:46.536Z,83.90
2018-04-13T02:15:14.643Z,87.53
2018-04-13T02:17:42.740Z,75.85
2018-04-13T02:20:10.861Z,76.53
2018-04-13T02:22:39.744Z,69.18
2018-04-13T02:25:07.854Z,65.15
2018-04-13T02:27:35.970Z,70.25
2018-04-13T02:30:04.188Z,71.43
2018-04-13T02:32:33.106Z,60.45
2018-04-13T02:35:01.226Z,57.25
2018-04-13T02:37:30.114Z,71.47
2018-04-13T02:39:58.241Z,76.35
2018-04-13T02:42:26.366Z,77.72
2018-04-13T02:44:55.246Z,76.90
2018-04-13T02:47:24.125Z,82.15
2018-04-13T02:49:52.242Z,78.55
2018-04-13T02:52:21.138Z,75.75
2018-04-13T02:54:49.265Z,70.80
2018-04-13T02:57:17.373Z,54.53
2018-04-13T02:59:45.495Z,61.50
2018-04-13T03:02:13.631Z,57.40
2018-04-13T03:04:41.790Z,62.28
2018-04-13T03:07:10.671Z,57.10
2018-04-13T03:09:39.547Z,69.85
2018-04-13T03:12:08.431Z,57.62
2018-04-13T03:14:38.421Z,68.07
2018-04-13T03:17:06.557Z,64.80
2018-04-13T03:22:35.413Z,66.45
2018-04-13T03:25:03.541Z,63.45
2018-04-13T03:27:31.660Z,64.95
2018-04-13T03:29:59.773Z,64.40
2018-04-13T03:32:28.663Z,55.25
2018-04-13T03:34:57.558Z,59.05
2018-04-13T03:37:26.440Z,61.22
2018-04-13T03:39:55.322Z,58.03
2018-04-13T03:42:24.209Z,73.28
2018-04-13T03:44:53.106Z,65.25
2018-04-13T03:47:22.010Z,57.33
2018-04-13T03:49:50.894Z,57.28
2018-04-13T03:52:19.774Z,58.78
2018-04-13T03:54:48.666Z,56.55
2018-04-13T03:57:17.556Z,65.87
2018-04-13T03:59:45.668Z,61.92
2018-04-13T04:02:13.835Z,60.95
2018-04-13T04:04:41.936Z,54.88
2018-04-13T04:07:10.045Z,56.58
2018-04-13T04:09:38.913Z,53.25
2018-04-13T04:12:07.045Z,57.13
2018-04-13T04:14:35.167Z,59.33
2018-04-13T04:17:04.045Z,64.62
2018-04-13T04:19:44.239Z,63.15
2018-04-13T04:22:25.422Z,65.55
2018-04-13T04:27:56.080Z,55.85
2018-04-13T04:30:24.188Z,52.42
2018-04-13T04:32:52.292Z,52.78
2018-04-13T04:35:21.194Z,52.30
2018-04-13T04:37:50.068Z,51.78
2018-04-13T04:40:18.175Z,56.03
2018-04-13T04:42:46.323Z,50.22
2018-04-13T04:45:15.238Z,57.92
2018-04-13T04:47:43.369Z,56.53
2018-04-13T04:50:11.570Z,62.03
2018-04-13T04:52:40.453Z,53.53
2018-04-13T04:55:09.353Z,63.92
2018-04-13T04:57:38.234Z,53.85
2018-04-13T05:00:07.146Z,60.40
2018-04-13T05:02:35.261Z,56.92
2018-04-13T05:05:03.408Z,54.47
2018-04-13T05:07:31.506Z,53.25
2018-04-13T05:09:59.610Z,52.03
2018-04-13T05:12:28.506Z,52.17
2018-04-13T05:14:57.439Z,54.33
2018-04-13T05:17:25.535Z,52.58
2018-04-13T05:19:53.650Z,49.72
2018-04-13T05:22:22.650Z,47.58
2018-04-13T05:24:51.548Z,54.53
2018-04-13T05:27:19.674Z,47.15
2018-04-13T05:29:47.780Z,48.70
2018-04-13T05:32:16.777Z,44.95
2018-04-13T05:34:44.906Z,45.30
2018-04-13T05:37:13.020Z,45.17
2018-04-13T05:39:41.124Z,43.97
2018-04-13T05:42:09.246Z,42.92
2018-04-13T05:44:38.134Z,43.85
2018-04-13T05:47:07.004Z,46.08
2018-04-13T05:49:35.116Z,46.25
2018-04-13T05:52:03.234Z,47.17
2018-04-13T05:54:31.378Z,46.08
2018-04-13T05:56:59.493Z,45.15
2018-04-13T05:59:27.630Z,46.72
2018-04-13T06:01:55.730Z,44.53
2018-04-13T06:04:23.849Z,43.55
2018-04-13T06:06:52.017Z,45.80
2018-04-13T06:09:20.887Z,44.22
2018-04-13T06:11:49.002Z,44.90
2018-04-13T06:14:17.154Z,42.05
2018-04-13T06:16:46.074Z,43.42
2018-04-13T06:19:14.205Z,43.22
2018-04-13T06:21:43.133Z,40.58
2018-04-13T06:24:11.240Z,44.13
2018-04-13T06:26:39.385Z,41.60
2018-04-13T06:29:07.476Z,48.97
2018-04-13T06:31:35.591Z,41.42
2018-04-13T06:34:04.617Z,48.00
2018-04-13T06:36:32.749Z,43.87
2018-04-13T06:39:01.649Z,41.95
2018-04-13T06:41:30.533Z,41.30
2018-04-13T06:43:59.421Z,42.17
2018-04-13T06:46:28.316Z,38.30
2018-04-13T06:48:57.199Z,38.97
2018-04-13T06:51:26.090Z,40.55
2018-04-13T06:53:54.973Z,42.25
2018-04-13T06:56:23.097Z,37.58
2018-04-13T06:58:51.201Z,35.55
2018-04-13T07:01:19.441Z,36.38
2018-04-13T07:03:47.463Z,33.75
2018-04-13T07:06:15.693Z,33.28
2018-04-13T07:08:43.797Z,28.85
2018-04-13T07:11:11.941Z,29.67
2018-04-13T07:13:40.217Z,31.12
2018-04-13T07:16:09.057Z,28.75
2018-04-13T07:18:37.938Z,28.25
2018-04-13T07:21:06.083Z,27.08
2018-04-13T07:23:34.200Z,24.95
2018-04-13T07:26:02.329Z,25.67
2018-04-13T07:28:30.445Z,26.23
2018-04-13T07:30:58.569Z,23.60
2018-04-13T07:33:26.703Z,22.37
2018-04-13T07:35:55.238Z,21.77
2018-04-13T07:38:23.746Z,22.92
2018-04-13T07:40:52.634Z,21.00
2018-04-13T07:43:21.701Z,19.87
2018-04-13T07:45:50.005Z,19.83
2018-04-13T07:48:18.236Z,20.37
2018-04-13T07:50:45.999Z,17.30
2018-04-13T07:53:14.141Z,16.77
2018-04-13T07:55:42.283Z,19.52
2018-04-13T07:58:11.181Z,15.00
2018-04-13T08:00:40.077Z,19.48
2018-04-13T08:03:08.979Z,18.75
2018-04-13T08:05:37.117Z,16.08
2018-04-13T08:08:06.053Z,17.60
2018-04-13T08:10:34.224Z,16.73
2018-04-13T08:13:02.395Z,18.10
2018-04-13T08:15:30.545Z,18.40
2018-04-13T08:17:59.473Z,18.83
2018-04-13T08:20:27.577Z,21.25
2018-04-13T08:22:55.829Z,18.65
2018-04-13T08:25:23.955Z,20.37
2018-04-13T08:27:52.839Z,18.17
2018-04-13T08:30:21.731Z,20.33
2018-04-13T08:32:50.633Z,18.98
2018-04-13T08:35:18.807Z,18.90
2018-04-13T08:37:47.837Z,19.90
2018-04-13T08:40:15.941Z,19.08
2018-04-13T08:42:45.619Z,19.27
2018-04-13T08:45:14.495Z,18.47
2018-04-13T08:47:42.626Z,23.20
2018-04-13T08:50:10.879Z,18.43
2018-04-13T08:52:39.023Z,19.10
2018-04-13T08:55:07.148Z,18.20
2018-04-13T08:57:35.273Z,19.13
2018-04-13T09:00:03.414Z,19.87
2018-04-13T09:02:32.299Z,18.80
2018-04-13T09:05:01.205Z,19.43
2018-04-13T09:07:29.360Z,17.93
2018-04-13T09:09:58.266Z,19.83
2018-04-13T09:12:26.379Z,23.23
2018-04-13T09:14:54.525Z,22.53
2018-04-13T09:17:22.706Z,23.77
2018-04-13T09:19:50.829Z,24.20
2018-04-13T09:22:18.947Z,27.17
2018-04-13T09:24:47.097Z,32.37
2018-04-13T09:27:16.009Z,33.17
2018-04-13T09:29:44.138Z,29.87
2018-04-13T09:32:12.265Z,31.77
2018-04-13T09:34:40.422Z,32.33
2018-04-13T09:37:08.559Z,33.70
2018-04-13T09:39:36.677Z,34.40
2018-04-13T09:42:04.798Z,38.30
2018-04-13T09:44:33.022Z,38.03
2018-04-13T09:47:01.150Z,40.57
2018-04-13T09:49:29.266Z,38.83
2018-04-13T09:51:57.406Z,37.87
2018-04-13T09:54:26.300Z,35.13
2018-04-13T09:56:55.182Z,38.27
2018-04-13T09:59:24.108Z,34.77
2018-04-13T10:01:52.242Z,34.47
2018-04-13T10:04:20.358Z,37.50
2018-04-13T10:06:48.540Z,37.10
2018-04-13T10:09:16.791Z,38.17
2018-04-13T10:11:44.910Z,33.97
2018-04-13T10:14:13.028Z,33.00
2018-04-13T10:16:41.188Z,34.00
2018-04-13T10:19:10.090Z,32.87
2018-04-13T10:21:38.979Z,30.33
2018-04-13T10:24:07.916Z,29.63
2018-04-13T10:26:36.079Z,28.80
2018-04-13T10:29:04.326Z,30.30
2018-04-13T10:31:32.470Z,27.03
2018-04-13T10:34:00.616Z,29.77
2018-04-13T10:36:28.764Z,28.47
2018-04-13T10:38:56.894Z,28.50
2018-04-13T10:41:25.018Z,27.23
2018-04-13T10:43:53.138Z,27.13
2018-04-13T10:46:21.274Z,28.93
2018-04-13T10:48:49.430Z,29.07
2018-04-13T10:51:17.611Z,31.20
2018-04-13T10:53:45.721Z,27.17
2018-04-13T10:56:13.897Z,28.83
2018-04-13T10:58:43.545Z,28.23
2018-04-13T11:01:11.671Z,28.67
2018-04-13T11:03:39.787Z,29.77
2018-04-13T11:06:07.928Z,31.93
2018-04-13T11:08:36.085Z,29.10
2018-04-13T11:11:04.205Z,32.37
2018-04-13T11:13:32.375Z,29.47
2018-04-13T11:16:01.517Z,31.47
2018-04-13T11:18:29.639Z,32.53
2018-04-13T11:20:58.523Z,33.53
2018-04-13T11:23:27.399Z,34.13
2018-04-13T11:25:55.558Z,33.23
2018-04-13T11:28:23.774Z,35.60
2018-04-13T11:30:51.909Z,33.63
2018-04-13T11:33:20.106Z,36.57
2018-04-13T11:35:48.232Z,37.40
2018-04-13T11:38:16.670Z,35.87
2018-04-13T11:40:45.573Z,37.40
2018-04-13T11:43:13.767Z,35.00
2018-04-13T11:45:41.889Z,36.00
2018-04-13T11:48:10.790Z,33.90
2018-04-13T11:50:39.681Z,36.33
2018-04-13T11:53:08.571Z,31.80
2018-04-13T11:55:37.489Z,32.20
2018-04-13T11:58:05.675Z,34.10
2018-04-13T12:00:33.827Z,32.73
2018-04-13T12:03:01.953Z,31.10
2018-04-13T12:05:30.197Z,29.23
2018-04-13T12:07:58.331Z,31.10
2018-04-13T12:10:27.264Z,30.60
2018-04-13T12:12:55.503Z,31.87
2018-04-13T12:15:24.431Z,28.53
2018-04-13T12:17:53.396Z,27.67
2018-04-13T12:20:21.608Z,27.37
2018-04-13T12:22:49.853Z,28.57
2018-04-13T12:25:18.020Z,26.97
2018-04-13T12:27:46.224Z,26.47
2018-04-13T12:30:14.336Z,26.30
2018-04-13T12:32:42.453Z,26.57
2018-04-13T12:35:10.642Z,25.70
2018-04-13T12:37:38.807Z,27.47
2018-04-13T12:40:07.018Z,25.83
2018-04-13T12:42:35.138Z,27.43
2018-04-13T12:45:03.298Z,25.93
2018-04-13T12:47:32.220Z,24.63
2018-04-13T12:50:00.378Z,26.90
2018-04-13T12:52:28.514Z,26.47
2018-04-13T12:54:56.912Z,27.20
2018-04-13T12:57:24.882Z,26.87
2018-04-13T12:59:53.782Z,25.97
2018-04-13T13:02:22.676Z,29.03
2018-04-13T13:04:50.818Z,25.80
2018-04-13T13:07:18.983Z,25.13
2018-04-13T13:09:47.134Z,26.00
2018-04-13T13:12:15.272Z,26.27
2018-04-13T13:14:43.378Z,27.70
2018-04-13T13:17:11.510Z,28.33
2018-04-13T13:19:40.397Z,26.43
2018-04-13T13:22:09.285Z,27.53
2018-04-13T13:24:38.169Z,24.40
2018-04-13T13:27:07.190Z,28.03
2018-04-13T13:29:35.460Z,29.93
2018-04-13T13:32:03.614Z,28.27
2018-04-13T13:34:32.498Z,26.47
2018-04-13T13:37:01.556Z,27.47
2018-04-13T13:39:29.675Z,27.07
2018-04-13T13:41:58.628Z,25.87
2018-04-13T13:44:26.735Z,26.23
2018-04-13T13:46:55.658Z,29.10
2018-04-13T13:49:23.773Z,25.27
2018-04-13T13:51:51.942Z,24.60
2018-04-13T13:54:20.065Z,23.87
2018-04-13T13:56:48.198Z,24.83
2018-04-13T13:59:16.362Z,23.63
2018-04-13T14:01:44.498Z,23.03
2018-04-13T14:04:12.620Z,23.37
2018-04-13T14:06:40.826Z,23.97
2018-04-13T14:09:09.746Z,26.30
2018-04-13T14:11:38.025Z,24.23
2018-04-13T14:14:06.172Z,26.10
2018-04-13T14:16:34.341Z,20.80
2018-04-13T14:19:03.277Z,21.93
2018-04-13T14:21:32.151Z,22.27
2018-04-13T14:24:00.329Z,22.73
2018-04-13T14:26:28.433Z,20.97
2018-04-13T14:28:56.579Z,20.63
2018-04-13T14:31:24.761Z,23.27
2018-04-13T14:33:52.918Z,21.10
2018-04-13T14:36:21.030Z,22.13
2018-04-13T14:38:49.181Z,22.37
2018-04-13T14:41:17.349Z,20.57
2018-04-13T14:43:45.492Z,21.47
2018-04-13T14:46:13.661Z,19.13
2018-04-13T14:48:41.786Z,22.80
2018-04-13T14:51:09.919Z,21.03
2018-04-13T14:53:38.105Z,22.00
2018-04-13T14:56:06.201Z,19.40
2018-04-13T14:58:34.327Z,20.20
2018-04-13T15:01:02.471Z,20.23
2018-04-13T15:03:30.580Z,19.63
2018-04-13T15:05:58.736Z,20.70
2018-04-13T15:08:27.657Z,17.70
2018-04-13T15:10:55.817Z,18.37
2018-04-13T15:13:23.929Z,19.13
2018-04-13T15:15:52.039Z,19.03
2018-04-13T15:18:20.937Z,20.33
2018-04-13T15:20:49.863Z,19.37
2018-04-13T15:23:17.983Z,20.80
2018-04-13T15:25:46.115Z,21.57
2018-04-13T15:28:14.240Z,18.00
2018-04-13T15:30:43.123Z,17.77
2018-04-13T15:33:12.046Z,18.70
2018-04-13T15:35:40.205Z,20.10
2018-04-13T15:38:09.072Z,17.37
2018-04-13T15:40:38.007Z,16.90
2018-04-13T15:43:06.124Z,16.93
2018-04-13T15:45:34.255Z,17.53
2018-04-13T15:48:02.377Z,17.97
2018-04-13T15:50:30.499Z,16.93
2018-04-13T15:52:58.621Z,16.93
2018-04-13T15:55:26.780Z,17.40
2018-04-13T15:57:54.924Z,16.07
2018-04-13T16:00:23.091Z,15.70
2018-04-13T16:02:52.070Z,15.80
2018-04-13T16:05:20.274Z,14.37
2018-04-13T16:07:48.364Z,15.03
2018-04-13T16:10:16.514Z,15.50
2018-04-13T16:12:44.680Z,17.17
2018-04-13T16:15:12.794Z,16.37
2018-04-13T16:17:40.924Z,16.97
2018-04-13T16:20:09.088Z,17.70
2018-04-13T16:22:37.775Z,17.27
2018-04-13T16:25:05.880Z,17.27
2018-04-13T16:27:33.992Z,18.70
2018-04-13T16:30:02.938Z,18.17
2018-04-13T16:32:31.057Z,16.37
2018-04-13T16:34:59.956Z,19.30
2018-04-13T16:37:28.853Z,19.20
2018-04-13T16:39:57.032Z,20.37
2018-04-13T16:42:25.170Z,23.83
2018-04-13T16:44:53.302Z,22.40
2018-04-13T16:47:21.414Z,19.63
2018-04-13T16:49:49.554Z,18.97
2018-04-13T16:52:17.679Z,18.97
2018-04-13T16:54:46.612Z,21.07
2018-04-13T16:57:14.762Z,21.93
2018-04-13T16:59:42.926Z,21.67
2018-04-13T17:02:11.853Z,18.53
2018-04-13T17:04:40.296Z,22.13
2018-04-13T17:07:09.193Z,19.90
2018-04-13T17:09:37.310Z,22.07
2018-04-13T17:12:05.444Z,21.93
2018-04-13T17:14:33.570Z,24.03
2018-04-13T17:17:01.690Z,20.13
2018-04-13T17:19:29.866Z,20.83
2018-04-13T17:21:58.015Z,19.83
2018-04-13T17:24:26.940Z,23.23
2018-04-13T17:26:55.065Z,21.87
2018-04-13T17:29:23.239Z,20.83
2018-04-13T17:31:51.341Z,24.53
2018-04-13T17:34:19.514Z,25.27
2018-04-13T17:36:48.450Z,23.60
2018-04-13T17:39:16.577Z,26.53
2018-04-13T17:41:45.563Z,24.93
2018-04-13T17:44:13.711Z,26.07
2018-04-13T17:46:41.825Z,25.03
2018-04-13T17:49:09.961Z,24.20
2018-04-13T17:51:38.106Z,29.60
2018-04-13T17:54:06.263Z,24.93
2018-04-13T17:56:34.384Z,24.13
2018-04-13T17:59:02.542Z,22.00
2018-04-13T18:01:30.759Z,22.87
2018-04-13T18:03:58.936Z,24.60
2018-04-13T18:06:27.051Z,26.33
2018-04-13T18:08:55.223Z,27.50
2018-04-13T18:11:23.338Z,24.80
2018-04-13T18:13:52.235Z,22.10
2018-04-13T18:16:21.163Z,23.13
2018-04-13T18:18:49.255Z,23.00
2018-04-13T18:21:17.434Z,25.93
2018-04-13T18:23:45.585Z,22.97
2018-04-13T18:26:13.694Z,26.67
2018-04-13T18:28:41.840Z,26.20
2018-04-13T18:31:09.986Z,22.93
2018-04-13T18:33:38.150Z,23.43
2018-04-13T18:36:06.298Z,25.70
2018-04-13T18:38:35.210Z,23.87
2018-04-13T18:41:03.343Z,27.27
2018-04-13T18:43:31.578Z,27.67
2018-04-13T18:45:59.726Z,25.63
2018-04-13T18:48:27.822Z,24.27
2018-04-13T18:50:55.978Z,27.20
2018-04-13T18:53:24.121Z,27.00
2018-04-13T18:55:52.242Z,23.73
2018-04-13T18:58:20.431Z,28.47
2018-04-13T19:00:49.274Z,25.27
2018-04-13T19:03:18.182Z,27.90
2018-04-13T19:05:46.319Z,28.23
2018-04-13T19:08:14.537Z,28.07
2018-04-13T19:10:42.687Z,29.27
2018-04-13T19:13:11.603Z,27.40
2018-04-13T19:15:39.744Z,28.30
2018-04-13T19:18:08.625Z,26.43
2018-04-13T19:20:36.773Z,28.27
2018-04-13T19:23:04.943Z,26.17
2018-04-13T19:25:33.088Z,28.33
2018-04-13T19:28:01.349Z,27.20
2018-04-13T19:30:29.491Z,30.43
2018-04-13T19:32:57.636Z,32.97
2018-04-13T19:35:25.767Z,28.23
2018-04-13T19:37:54.662Z,32.53
2018-04-13T19:40:22.797Z,27.53
2018-04-13T19:42:50.943Z,29.50
2018-04-13T19:45:19.165Z,32.93
2018-04-13T19:47:47.242Z,27.43
2018-04-13T19:50:16.146Z,30.23
2018-04-13T19:52:44.277Z,27.93
2018-04-13T19:55:12.422Z,27.17
2018-04-13T19:57:40.592Z,32.00
2018-04-13T20:00:08.737Z,28.90
2018-04-13T20:02:36.891Z,30.97
2018-04-13T20:05:05.842Z,30.47
2018-04-13T20:07:33.957Z,31.70
2018-04-13T20:10:02.891Z,31.13
2018-04-13T20:12:31.041Z,33.90
2018-04-13T20:14:59.934Z,34.30
2018-04-13T20:17:28.055Z,31.47
2018-04-13T20:19:56.275Z,31.87
2018-04-13T20:22:25.165Z,36.23
2018-04-13T20:24:54.062Z,35.60
2018-04-13T20:27:22.242Z,34.10
2018-04-13T20:29:50.330Z,35.03
2018-04-13T20:32:18.482Z,36.40
2018-04-13T20:34:46.615Z,36.47
2018-04-13T20:37:14.828Z,32.43
2018-04-13T20:39:43.010Z,36.00
2018-04-13T20:42:11.142Z,33.27
2018-04-13T20:44:39.359Z,38.70
2018-04-13T20:47:07.530Z,36.77
2018-04-13T20:49:35.650Z,38.83
2018-04-13T20:52:04.618Z,36.10
2018-04-13T20:54:32.748Z,36.10
2018-04-13T20:57:01.648Z,38.47
2018-04-13T20:59:30.537Z,34.70
2018-04-13T21:01:58.691Z,35.00
2018-04-13T21:04:26.817Z,37.43
2018-04-13T21:06:54.961Z,36.90
2018-04-13T21:09:23.088Z,43.10
2018-04-13T21:11:51.209Z,40.43
2018-04-13T21:14:19.390Z,41.07
2018-04-13T21:16:47.539Z,44.33
2018-04-13T21:19:16.442Z,40.97
2018-04-13T21:21:44.611Z,46.73
2018-04-13T21:24:13.543Z,53.00
2018-04-13T21:26:41.685Z,51.37
2018-04-13T21:29:09.818Z,52.53
2018-04-13T21:31:38.701Z,54.30
2018-04-13T21:34:06.831Z,55.60
2018-04-13T21:36:34.965Z,59.23
2018-04-13T21:39:03.122Z,58.97
2018-04-13T21:41:31.249Z,58.87
2018-04-13T21:44:00.176Z,58.03
2018-04-13T21:46:28.314Z,60.77
2018-04-13T21:48:56.455Z,63.20
2018-04-13T21:51:25.336Z,64.57
2018-04-13T21:53:53.469Z,57.87
2018-04-13T21:56:21.593Z,57.90
2018-04-13T21:58:50.517Z,55.27
2018-04-13T22:01:18.649Z,59.78
2018-04-13T22:03:47.537Z,61.17
2018-04-13T22:06:16.557Z,66.82
2018-04-13T22:08:44.685Z,64.57
2018-04-13T22:11:12.797Z,68.93
2018-04-13T22:13:45.821Z,70.23
2018-04-13T22:16:13.966Z,64.45
2018-04-13T22:18:42.094Z,66.28
2018-04-13T22:21:10.248Z,65.68
2018-04-13T22:23:38.482Z,62.93
2018-04-13T22:26:06.612Z,66.17
2018-04-13T22:28:34.736Z,74.43
2018-04-13T22:31:02.858Z,78.35
2018-04-13T22:33:32.504Z,79.35
2018-04-13T22:36:00.687Z,76.22
2018-04-13T22:38:28.809Z,72.68
2018-04-13T22:40:56.943Z,74.53
2018-04-13T22:43:25.070Z,78.03
2018-04-13T22:45:53.969Z,81.00
2018-04-13T22:48:22.872Z,87.03
2018-04-13T22:50:51.764Z,88.73
2018-04-13T22:53:20.662Z,76.00
2018-04-13T22:55:48.841Z,79.37
2018-04-13T22:58:17.058Z,78.85
2018-04-13T23:00:45.192Z,77.43
2018-04-13T23:03:13.316Z,78.43
2018-04-13T23:05:43.010Z,81.45
2018-04-13T23:08:11.135Z,72.72
2018-04-13T23:10:39.265Z,77.33
2018-04-13T23:13:07.383Z,74.78
2018-04-13T23:15:35.511Z,81.75
2018-04-13T23:18:03.737Z,87.40
2018-04-13T23:20:31.866Z,84.47
2018-04-13T23:23:00.003Z,71.93
2018-04-13T23:25:28.124Z,78.85
2018-04-13T23:27:57.162Z,84.80
2018-04-13T23:30:25.278Z,87.12
2018-04-13T23:32:54.165Z,76.20
2018-04-13T23:35:23.071Z,75.47
2018-04-13T23:37:51.973Z,76.68
2018-04-13T23:40:20.852Z,74.67
2018-04-13T23:42:48.982Z,80.57
2018-04-13T23:45:17.126Z,83.43
2018-04-13T23:47:45.274Z,79.93
2018-04-13T23:50:14.166Z,81.37
2018-04-13T23:52:43.050Z,81.12
2018-04-13T23:55:11.958Z,88.15
2018-04-13T23:57:40.952Z,85.33
